createdAt,value
2022-10-05T00:01:42.632Z,86.29
2022-10-05T00:08:02.628Z,86.49
2022-10-05T00:14:25.690Z,86.91
2022-10-05T00:20:45.584Z,86.9
2022-10-05T00:27:08.664Z,87.13
2022-10-05T00:33:28.622Z,86.65
2022-10-05T00:39:51.597Z,86.9
2022-10-05T00:46:11.599Z,86.86
2022-10-05T00:52:34.608Z,87.34
2022-10-05T00:58:54.605Z,87.78
2022-10-05T01:05:17.566Z,87.57
2022-10-05T01:11:37.663Z,87.86
2022-10-05T01:18:00.622Z,87.61
2022-10-05T01:24:20.609Z,87.46
2022-10-05T01:30:43.602Z,87.12
2022-10-05T01:37:03.663Z,87.19
2022-10-05T01:43:26.589Z,86.72
2022-10-05T01:49:46.608Z,86.12
2022-10-05T01:56:09.629Z,85.88
2022-10-05T02:02:29.732Z,85.63
2022-10-05T02:08:52.676Z,86.17
2022-10-05T02:15:12.567Z,85.84
2022-10-05T02:21:35.556Z,86.36
2022-10-05T02:27:55.660Z,86.6
2022-10-05T02:34:18.670Z,86.17
2022-10-05T02:40:38.581Z,86.54
2022-10-05T02:47:01.662Z,86.64
2022-10-05T02:53:21.599Z,86.83
2022-10-05T02:59:44.660Z,87.12
2022-10-05T03:06:04.620Z,87.24
2022-10-05T03:21:57.493Z,87.61
2022-10-05T03:28:17.620Z,87.53
2022-10-05T03:34:40.581Z,87.96
2022-10-05T03:41:00.601Z,87.96
2022-10-05T03:47:23.626Z,87.49
2022-10-05T03:53:43.599Z,88.19
2022-10-05T04:00:06.638Z,88.48
2022-10-05T04:06:26.601Z,88.65
2022-10-05T04:12:49.620Z,88.28
2022-10-05T04:19:09.600Z,87.78
2022-10-05T04:25:32.598Z,87.78
2022-10-05T04:31:52.663Z,88.57
2022-10-05T04:38:15.650Z,89.09
2022-10-05T04:44:35.629Z,89.24
2022-10-05T04:50:58.617Z,89.44
2022-10-05T04:57:18.613Z,89.73
2022-10-05T05:03:41.672Z,89.53
2022-10-05T05:10:01.615Z,89.34
2022-10-05T05:16:24.683Z,89.1
2022-10-05T05:22:44.603Z,89.3
2022-10-05T05:29:07.647Z,89.26
2022-10-05T05:35:27.589Z,89.37
2022-10-05T05:41:50.611Z,89.29
2022-10-05T05:48:10.597Z,89.47
2022-10-05T05:54:33.600Z,89.61
2022-10-05T06:00:53.600Z,89.62
2022-10-05T06:07:16.609Z,89.58
2022-10-05T06:13:36.655Z,89.49
2022-10-05T06:20:04.107Z,89.33
2022-10-05T06:26:19.621Z,89.01
2022-10-05T06:32:42.632Z,88.88
2022-10-05T06:39:02.620Z,88.64
2022-10-05T06:45:25.825Z,88.42
2022-10-05T06:51:45.664Z,88.39
2022-10-05T06:58:08.604Z,87.88
2022-10-05T07:04:30.435Z,87.82
2022-10-05T07:10:51.612Z,87.44
2022-10-05T07:17:11.587Z,87.39
2022-10-05T07:23:34.605Z,86.82
2022-10-05T07:29:54.602Z,86.21
2022-10-05T07:36:17.609Z,85.97
2022-10-05T07:42:44.632Z,86.03
2022-10-05T07:49:00.707Z,86.55
2022-10-05T07:55:20.575Z,85.41
2022-10-05T08:01:43.621Z,85.33
2022-10-05T08:08:03.626Z,84.64
2022-10-05T08:14:26.643Z,84
2022-10-05T08:37:29.589Z,82.9
2022-10-05T08:43:52.591Z,82.18
2022-10-05T08:50:12.665Z,81.15
2022-10-05T08:56:35.612Z,80.9
2022-10-05T09:02:55.690Z,81.52
2022-10-05T09:09:18.628Z,80.26
2022-10-05T09:15:38.752Z,79.7
2022-10-05T09:22:01.582Z,79.31
2022-10-05T09:28:21.596Z,79.33
2022-10-05T09:34:44.615Z,79.83
2022-10-05T09:41:04.564Z,77.84
2022-10-05T09:47:27.591Z,77.73
2022-10-05T09:53:47.605Z,76.65
2022-10-05T10:00:10.594Z,75.76
2022-10-05T10:06:30.608Z,72.74
2022-10-05T10:12:53.650Z,71.02
2022-10-05T10:19:13.585Z,68.44
2022-10-05T10:25:36.618Z,65.44
2022-10-05T10:31:56.658Z,66.49
2022-10-05T10:38:19.587Z,65.92
2022-10-05T10:44:39.591Z,63.19
2022-10-05T10:51:02.620Z,61.4
2022-10-05T10:57:22.590Z,59.64
2022-10-05T11:03:45.589Z,59.89
2022-10-05T11:10:05.648Z,58.38
2022-10-05T11:16:28.603Z,57.32
2022-10-05T11:22:48.567Z,57.36
2022-10-05T11:29:11.613Z,57.93
2022-10-05T11:35:31.580Z,56.43
2022-10-05T11:41:54.582Z,56.15
2022-10-05T11:48:14.596Z,55.3
2022-10-05T11:54:52.396Z,55.34
2022-10-05T12:00:57.692Z,54.44
2022-10-05T12:07:21.730Z,54.44
2022-10-05T12:13:41.584Z,54.65
2022-10-05T12:20:04.692Z,52.31
2022-10-05T12:26:24.613Z,53.41
2022-10-05T12:32:47.579Z,52.33
2022-10-05T12:39:07.567Z,52.69
2022-10-05T12:45:30.772Z,52.31
2022-10-05T12:51:50.652Z,52.42
2022-10-05T12:58:13.583Z,53.42
2022-10-05T13:04:33.588Z,54.25
2022-10-05T13:10:59.975Z,55.74
2022-10-05T13:17:16.866Z,56.58
2022-10-05T13:23:39.635Z,56.25
2022-10-05T13:29:59.607Z,56.74
2022-10-05T13:45:54.123Z,56.67
2022-10-05T13:52:11.618Z,57.04
2022-10-05T13:58:35.212Z,56.1
2022-10-05T14:04:55.614Z,56.57
2022-10-05T14:11:18.585Z,57.39
2022-10-05T14:17:38.566Z,58.13
2022-10-05T14:24:02.471Z,58.48
2022-10-05T14:30:22.593Z,59.5
2022-10-05T14:36:45.565Z,59.48
2022-10-05T14:43:05.598Z,59.22
2022-10-05T14:49:28.593Z,58.67
2022-10-05T14:55:48.557Z,59.8
2022-10-05T15:02:11.742Z,59.43
2022-10-05T15:08:31.561Z,60.23
2022-10-05T15:14:54.636Z,60.49
2022-10-05T15:21:14.829Z,60.3
2022-10-05T15:27:37.597Z,61.13
2022-10-05T15:33:57.600Z,61.87
2022-10-05T15:40:20.615Z,62.42
2022-10-05T15:46:40.800Z,62.84
2022-10-05T15:53:03.923Z,63.76
2022-10-05T15:59:23.595Z,64.29
2022-10-05T16:05:46.648Z,64.93
2022-10-05T16:12:06.577Z,65.95
2022-10-05T16:18:29.585Z,66.44
2022-10-05T16:24:49.560Z,67.24
2022-10-05T16:31:12.688Z,68.4
2022-10-05T16:37:32.583Z,69.31
2022-10-05T16:43:55.593Z,70.56
2022-10-05T16:50:15.597Z,70.97
2022-10-05T16:56:38.635Z,71.61
2022-10-05T17:02:58.659Z,71.77
2022-10-05T17:09:21.605Z,72.01
2022-10-05T17:15:41.652Z,72.29
2022-10-05T17:22:04.624Z,72.57
2022-10-05T17:28:25.027Z,73.46
2022-10-05T17:34:47.650Z,73.61
2022-10-05T17:41:07.604Z,73.88
2022-10-05T17:47:30.589Z,73.05
2022-10-05T17:53:50.661Z,73.32
2022-10-05T18:00:13.639Z,72.85
2022-10-05T18:06:33.580Z,73.22
2022-10-05T18:12:56.725Z,73.14
2022-10-05T18:19:16.562Z,71.51
2022-10-05T18:25:39.591Z,70.66
2022-10-05T18:31:59.605Z,70.56
2022-10-05T18:49:03.615Z,67.72
2022-10-05T18:55:23.559Z,66.07
2022-10-05T19:01:46.704Z,66.59
2022-10-05T19:08:06.598Z,67.13
2022-10-05T19:14:29.561Z,68.25
2022-10-05T19:20:49.589Z,69.99
2022-10-05T19:27:12.604Z,71.01
2022-10-05T19:33:32.576Z,72.22
2022-10-05T19:39:55.591Z,73.29
2022-10-05T19:46:17.626Z,73.5
2022-10-05T19:52:38.888Z,71.89
2022-10-05T19:58:58.573Z,71.07
2022-10-05T20:05:21.629Z,70.58
2022-10-05T20:11:41.590Z,69.51
2022-10-05T20:18:04.564Z,71.07
2022-10-05T20:24:24.594Z,71.94
2022-10-05T20:30:47.587Z,73.56
2022-10-05T20:37:07.610Z,73.54
2022-10-05T20:43:30.653Z,72.94
2022-10-05T20:49:50.587Z,70.49
2022-10-05T20:56:13.562Z,69.76
2022-10-05T21:02:33.584Z,68.84
2022-10-05T21:08:56.586Z,68.28
2022-10-05T21:15:16.563Z,67.99
2022-10-05T21:21:39.584Z,68
2022-10-05T21:27:59.633Z,68.02
2022-10-05T21:34:22.563Z,67.87
2022-10-05T21:40:42.642Z,67.9
2022-10-05T21:47:05.562Z,67.97
2022-10-05T21:53:25.579Z,68.28
2022-10-05T21:59:48.595Z,68.43
2022-10-05T22:22:45.581Z,69.34
2022-10-05T22:29:05.587Z,69.6
2022-10-05T22:35:28.572Z,69.68
2022-10-05T22:41:48.753Z,69.83
2022-10-05T22:48:11.624Z,70
2022-10-05T22:54:34.293Z,70.43
2022-10-05T23:00:58.297Z,72.45
2022-10-05T23:07:14.640Z,73.77
2022-10-05T23:13:37.625Z,74.36
2022-10-05T23:19:57.612Z,75.84
2022-10-05T23:26:20.572Z,76.4
2022-10-05T23:32:40.610Z,76.42
2022-10-05T23:39:03.612Z,76.42
2022-10-05T23:45:23.619Z,76.44
2022-10-05T23:51:46.565Z,76.25
2022-10-05T23:58:06.622Z,76.06
